Time;durP1;ratioP1;P1;durP2;ratioP2;P2;SDS_P1;SDS_P2;PMS_P1;PMS_P2;Temp;Humidity;BMP_temperature;BMP_pressure;BME280_temperature;BME280_humidity;BME280_pressure;Samples;Min_cycle;Max_cycle;Signal;HPM_P1;HPM_P2
2023/04/14 14:21:12;;;;;;;2.85;1.80;;;10.30;88.50;;;;;;5100527;27;20591;-82
2023/04/14 14:23:38;;;;;;;2.88;1.65;;;10.20;84.80;;;;;;5078691;28;20217;-80
2023/04/14 14:26:05;;;;;;;3.72;2.75;;;10.40;88.70;;;;;;5083227;28;20203;-80
2023/04/14 14:28:32;;;;;;;3.63;2.78;;;10.50;86.80;;;;;;5079565;28;20201;-81
2023/04/14 14:30:59;;;;;;;2.83;2.08;;;10.60;80.20;;;;;;5077859;28;20556;-83
2023/04/14 14:33:26;;;;;;;2.50;1.88;;;10.40;82.20;;;;;;5079112;28;20201;-86
2023/04/14 14:35:54;;;;;;;5.85;4.55;;;10.30;81.20;;;;;;5084118;28;20637;-87
2023/04/14 14:38:23;;;;;;;6.47;3.53;;;10.40;85.80;;;;;;5079101;28;20201;-89
2023/04/14 14:40:50;;;;;;;4.22;3.17;;;10.40;82.40;;;;;;5076665;28;20235;-87
2023/04/14 14:43:17;;;;;;;4.03;3.05;;;10.70;83.50;;;;;;5074205;28;20208;-89
2023/04/14 14:45:44;;;;;;;10.07;6.80;;;10.90;81.60;;;;;;5071360;28;20228;-88
2023/04/14 14:48:12;;;;;;;5.53;2.00;;;11.40;83.70;;;;;;5070083;28;20246;-87
2023/04/14 14:51:23;;;;;;;2.13;1.67;;;11.70;81.50;;;;;;5081549;28;20280;-91
2023/04/14 14:53:54;;;;;;;1.98;1.77;;;12.00;67.20;;;;;;5082446;28;20232;-86
2023/04/14 14:56:21;;;;;;;2.20;1.10;;;11.80;63.00;;;;;;5080064;28;20206;-86
2023/04/14 14:58:49;;;;;;;0.82;0.82;;;11.80;47.80;;;;;;5065897;28;20235;-86
2023/04/14 15:01:17;;;;;;;5.97;2.10;;;11.60;39.70;;;;;;5071813;28;20642;-86
2023/04/14 15:19:52;;;;;;;2.40;1.42;;;10.10;53.20;;;;;;5093596;28;20230;-87
2023/04/14 15:22:23;;;;;;;2.40;1.40;;;10.30;51.20;;;;;;5099090;28;20306;-88
2023/04/14 15:24:50;;;;;;;2.28;1.63;;;10.10;55.00;;;;;;5126977;28;20188;-88
2023/04/14 15:27:19;;;;;;;2.42;2.05;;;9.90;62.30;;;;;;5111527;28;20204;-87
2023/04/14 15:29:46;;;;;;;2.03;1.83;;;9.80;61.80;;;;;;5123995;28;20962;-87
2023/04/14 15:32:13;;;;;;;1.70;1.40;;;9.80;68.30;;;;;;5082989;28;20204;-87
2023/04/14 15:34:40;;;;;;;1.30;1.20;;;9.80;74.40;;;;;;5111375;28;20196;-86
2023/04/14 15:37:07;;;;;;;1.73;1.63;;;9.50;74.40;;;;;;5113986;27;20198;-89
2023/04/14 15:39:39;;;;;;;3.42;2.15;;;9.40;77.80;;;;;;5110656;28;20702;-87
2023/04/14 15:42:06;;;;;;;2.03;1.60;;;9.40;81.70;;;;;;5103965;28;20199;-87
2023/04/14 15:44:35;;;;;;;1.75;1.30;;;9.40;87.40;;;;;;5084907;28;20236;-87
2023/04/14 15:47:03;;;;;;;1.88;1.67;;;9.40;88.70;;;;;;5106912;28;20201;-84
2023/04/14 15:49:31;;;;;;;2.10;1.83;;;9.20;90.50;;;;;;5105799;28;20527;-85
2023/04/14 15:51:58;;;;;;;3.30;1.90;;;9.00;91.80;;;;;;5091790;28;20215;-85
2023/04/14 15:54:26;;;;;;;2.30;2.00;;;8.80;92.70;;;;;;5105968;27;20724;-88
2023/04/14 15:56:53;;;;;;;4.90;3.90;;;8.50;93.80;;;;;;5089222;28;20192;-90
2023/04/14 15:59:21;;;;;;;4.47;2.90;;;8.50;93.10;;;;;;5106090;28;20208;-87
2023/04/14 16:01:49;;;;;;;4.43;2.35;;;8.40;93.90;;;;;;5113593;28;20219;-91
2023/04/14 16:04:16;;;;;;;7.90;2.60;;;8.20;94.90;;;;;;5111453;28;20203;-85
2023/04/14 16:06:43;;;;;;;3.13;2.35;;;7.90;94.80;;;;;;5107181;28;20223;-85
2023/04/14 16:09:10;;;;;;;3.95;2.45;;;7.30;96.70;;;;;;5107084;28;20201;-84
2023/04/14 16:11:37;;;;;;;5.25;2.88;;;7.00;97.90;;;;;;5114949;28;20195;-87
2023/04/14 16:14:04;;;;;;;5.45;2.47;;;6.60;99.70;;;;;;5116086;28;20198;-86
2023/04/14 16:16:31;;;;;;;1.85;1.67;;;6.50;99.90;;;;;;5110679;28;20647;-88
2023/04/14 16:18:59;;;;;;;2.45;1.75;;;6.40;99.90;;;;;;5103412;28;20236;-85
2023/04/14 16:21:48;;;;;;;2.33;1.77;;;6.50;99.90;;;;;;5094615;28;20227;-85
2023/04/14 16:24:15;;;;;;;3.10;1.70;;;6.60;99.90;;;;;;5098696;28;20530;-89
2023/04/14 16:26:41;;;;;;;3.40;2.07;;;6.60;99.90;;;;;;5102505;28;20212;-89
2023/04/14 16:29:08;;;;;;;3.20;2.20;;;6.70;99.90;;;;;;5106494;28;20567;-90
2023/04/14 16:31:35;;;;;;;2.60;2.08;;;6.70;99.90;;;;;;5109877;28;20208;-89
2023/04/14 16:34:03;;;;;;;2.28;2.08;;;6.80;99.90;;;;;;5107589;28;20196;-86
2023/04/14 16:36:32;;;;;;;2.95;2.17;;;6.70;99.90;;;;;;5100424;28;20197;-85
2023/04/14 16:38:59;;;;;;;2.40;2.10;;;6.80;99.90;;;;;;5098434;28;20208;-85
2023/04/14 16:41:27;;;;;;;5.53;2.55;;;6.80;99.90;;;;;;5116636;28;20590;-86
2023/04/14 16:47:16;;;;;;;4.63;2.22;;;6.50;99.90;;;;;;5111963;28;20191;-86
2023/04/14 16:49:44;;;;;;;3.75;2.60;;;6.40;99.90;;;;;;5110499;28;20647;-88
2023/04/14 16:52:11;;;;;;;2.40;2.20;;;6.40;99.90;;;;;;5116166;28;20213;-88
2023/04/14 16:54:38;;;;;;;2.67;2.45;;;6.40;99.90;;;;;;5104965;28;20287;-90
2023/04/14 16:57:05;;;;;;;4.10;2.83;;;6.50;99.90;;;;;;5077569;28;20208;-89
2023/04/14 16:59:32;;;;;;;3.78;2.60;;;6.50;99.90;;;;;;5106604;28;20265;-89
2023/04/14 17:01:59;;;;;;;2.85;2.10;;;6.40;99.90;;;;;;5099727;28;20267;-88
2023/04/14 17:04:30;;;;;;;2.03;1.83;;;6.30;99.90;;;;;;5100168;28;20200;-89
2023/04/14 17:11:10;;;;;;;2.72;1.90;;;6.30;99.90;;;;;;5115378;28;20198;-88
2023/04/14 17:13:52;;;;;;;3.67;2.10;;;6.40;99.90;;;;;;5115850;28;20184;-88
2023/04/14 17:16:19;;;;;;;2.58;1.83;;;6.40;99.90;;;;;;5116143;28;20231;-88
2023/04/14 17:18:50;;;;;;;2.53;1.90;;;6.30;99.90;;;;;;5116337;28;20211;-89
2023/04/14 17:21:22;;;;;;;2.05;1.83;;;6.30;99.90;;;;;;5116024;28;20306;-89
2023/04/14 17:23:49;;;;;;;2.28;2.03;;;6.40;99.90;;;;;;5844867;22;20231;-89
2023/04/14 17:26:16;;;;;;;3.13;2.05;;;6.40;99.90;;;;;;5074888;28;20193;-89
2023/04/14 17:28:42;;;;;;;4.38;1.90;;;6.40;99.90;;;;;;5055329;28;20654;-89
2023/04/14 17:31:12;;;;;;;2.63;1.95;;;6.40;99.90;;;;;;5043251;28;20197;-88
2023/04/14 17:33:50;;;;;;;3.67;2.08;;;6.30;99.90;;;;;;5057201;28;20189;-89
2023/04/14 17:36:17;;;;;;;2.05;1.80;;;6.30;99.90;;;;;;5074320;28;20200;-89
2023/04/14 17:38:44;;;;;;;2.90;2.05;;;6.30;99.90;;;;;;5074930;28;20262;-89
2023/04/14 17:41:11;;;;;;;2.00;1.75;;;6.30;99.90;;;;;;5074683;28;20217;-87
2023/04/14 17:43:40;;;;;;;1.92;1.75;;;6.20;99.90;;;;;;5074630;28;20209;-88
2023/04/14 17:46:08;;;;;;;3.47;1.67;;;6.10;99.90;;;;;;5073807;28;20190;-87
2023/04/14 17:48:36;;;;;;;2.03;1.80;;;6.00;99.90;;;;;;5074547;28;20212;-88
2023/04/14 17:51:18;;;;;;;2.58;1.83;;;6.00;99.90;;;;;;5074544;28;20186;-87
2023/04/14 17:53:45;;;;;;;2.95;1.92;;;6.10;99.90;;;;;;5074032;28;20220;-88
2023/04/14 17:56:14;;;;;;;2.30;1.80;;;6.10;99.90;;;;;;5074890;28;20192;-88
2023/04/14 17:58:45;;;;;;;1.50;1.40;;;6.20;99.90;;;;;;5074107;28;20205;-88
2023/04/14 18:01:12;;;;;;;2.35;1.90;;;6.30;99.90;;;;;;5037588;28;20221;-88
2023/04/14 18:03:40;;;;;;;3.22;1.85;;;6.20;99.90;;;;;;5053706;28;20676;-88
2023/04/14 18:06:08;;;;;;;3.47;1.80;;;6.20;99.90;;;;;;5054333;28;20196;-88
2023/04/14 18:08:37;;;;;;;2.70;1.88;;;6.10;99.90;;;;;;5065892;28;20586;-88
2023/04/14 18:11:04;;;;;;;2.60;1.90;;;6.10;99.90;;;;;;5074173;28;20212;-88
2023/04/14 18:13:32;;;;;;;4.82;2.00;;;6.10;99.90;;;;;;5074430;28;20190;-88
2023/04/14 18:16:18;;;;;;;1.75;1.65;;;6.10;99.90;;;;;;5074296;28;20189;-88
2023/04/14 18:18:47;;;;;;;2.90;1.92;;;6.00;99.90;;;;;;5074445;28;20209;-87
2023/04/14 18:21:14;;;;;;;1.87;1.63;;;6.00;99.90;;;;;;5074197;28;20563;-87
2023/04/14 18:39:10;;;;;;;2.30;2.10;;;5.80;99.90;;;;;;5031792;28;20214;-87
2023/04/14 18:41:37;;;;;;;2.80;2.20;;;5.90;99.90;;;;;;5033911;28;20225;-87
2023/04/14 18:44:04;;;;;;;2.47;1.93;;;5.90;99.90;;;;;;5034394;28;20278;-87
2023/04/14 18:50:24;;;;;;;26.02;12.73;;;5.90;99.90;;;;;;5033253;28;20191;-87
2023/04/14 18:52:51;;;;;;;4.40;2.78;;;5.90;99.90;;;;;;5033792;28;20278;-87
2023/04/14 18:55:19;;;;;;;2.63;2.03;;;5.90;99.90;;;;;;5033795;28;20202;-87
2023/04/14 19:05:12;;;;;;;3.80;2.33;;;5.90;99.90;;;;;;5033608;28;20190;-87
2023/04/14 19:11:46;;;;;;;2.58;2.38;;;5.80;99.90;;;;;;5037065;28;20556;-86
2023/04/14 19:17:55;;;;;;;5.97;3.13;;;5.90;99.90;;;;;;5036814;28;20166;-86
2023/04/14 19:20:25;;;;;;;4.63;2.93;;;6.10;99.90;;;;;;5037335;28;20218;-87
2023/04/14 19:30:18;;;;;;;4.20;3.20;;;6.00;99.90;;;;;;5035525;28;20689;-86
2023/04/14 19:32:45;;;;;;;9.05;5.03;;;6.00;99.90;;;;;;5036886;28;20199;-86
2023/04/14 19:35:13;;;;;;;4.85;3.15;;;6.00;99.90;;;;;;5037284;28;20202;-86
2023/04/14 19:38:28;;;;;;;6.43;3.67;;;6.10;99.90;;;;;;5040212;28;20207;-86
2023/04/14 19:44:37;;;;;;;9.23;4.93;;;6.30;99.90;;;;;;5049294;28;20250;-87
2023/04/14 19:47:06;;;;;;;5.43;3.53;;;6.30;99.90;;;;;;5057265;28;20190;-84
2023/04/14 19:49:34;;;;;;;6.15;3.40;;;6.30;99.90;;;;;;5054947;28;20186;-86
2023/04/14 19:52:03;;;;;;;3.72;2.85;;;6.40;99.90;;;;;;5056702;28;20209;-86
2023/04/14 19:58:20;;;;;;;4.82;3.20;;;6.50;99.90;;;;;;5055129;28;20182;-86
2023/04/14 20:05:02;;;;;;;4.85;3.15;;;6.50;99.90;;;;;;5056067;28;20216;-86
2023/04/14 20:10:57;;;;;;;6.20;3.75;;;6.50;99.90;;;;;;5055922;28;20205;-85
2023/04/14 20:17:04;;;;;;;6.68;3.47;;;6.40;99.90;;;;;;5055642;28;20250;-85
2023/04/14 20:20:15;;;;;;;7.32;4.00;;;6.30;99.90;;;;;;5056383;28;20193;-85
2023/04/14 20:38:17;;;;;;;7.18;4.38;;;6.40;99.90;;;;;;5444432;22;20225;-86
2023/04/14 20:41:09;;;;;;;8.25;4.75;;;6.50;99.90;;;;;;5076022;28;20224;-85
2023/04/14 20:43:36;;;;;;;9.68;4.25;;;6.60;99.90;;;;;;5075366;28;20194;-85
2023/04/14 20:46:04;;;;;;;8.05;5.00;;;6.60;99.90;;;;;;5075319;28;20554;-85
2023/04/14 20:48:31;;;;;;;8.27;4.10;;;6.60;99.90;;;;;;5075194;28;20201;-85
2023/04/14 20:50:58;;;;;;;5.07;3.78;;;6.50;99.90;;;;;;5074575;28;20227;-85
2023/04/14 20:53:28;;;;;;;4.43;3.78;;;6.40;99.90;;;;;;5074611;28;20193;-85
2023/04/14 20:55:55;;;;;;;4.95;3.50;;;6.30;99.90;;;;;;5075365;28;20196;-85
2023/04/14 20:58:22;;;;;;;4.40;3.42;;;6.30;99.90;;;;;;5075201;28;20264;-86
2023/04/14 21:00:49;;;;;;;8.77;4.30;;;6.30;99.90;;;;;;5074528;28;20213;-85
2023/04/14 21:03:16;;;;;;;5.30;4.30;;;6.40;99.90;;;;;;5070897;28;20202;-85
2023/04/14 21:05:43;;;;;;;5.47;3.90;;;6.50;99.90;;;;;;5061016;28;20204;-85
2023/04/14 21:08:13;;;;;;;5.93;3.53;;;6.50;99.90;;;;;;5073590;28;20255;-85
2023/04/14 21:10:41;;;;;;;6.38;4.35;;;6.50;99.90;;;;;;5074430;28;20201;-85
2023/04/14 21:13:08;;;;;;;6.68;3.63;;;6.50;99.90;;;;;;5074605;28;20201;-85
2023/04/14 21:15:35;;;;;;;6.35;4.07;;;6.50;99.90;;;;;;5074718;28;20192;-85
2023/04/14 21:18:03;;;;;;;8.00;4.32;;;6.60;99.90;;;;;;5074614;28;20193;-85
2023/04/14 21:20:30;;;;;;;5.82;4.13;;;6.50;99.90;;;;;;5059691;28;20217;-85
